Villa Rio Canas, Puerto Rico
Current Conditions -  °F | °C
As of 7:56 AM on Thursday 18 Dec 2014 (Local Time) from TJSJ Reporting Station
Scattered Clouds Scattered Clouds  
Wind Chill: 78°   Ceiling: Unl
Heat Index: 80°   Visibility: 10mi
Dew Point: 69°   Wind: 10mph
Humidity: 74%   Direction: 40°NE
Pressure: 30.03"   Gusts: 16mph
Location:  18.0073°N, 66.5912°W
Report Text: TJSJ 181156Z 04009G14KT 10SM FEW032 SCT045 SCT085 26/21 A3003 RMK AO2 SLP169 60003 70008 T02560206 10256 20244 53013
Loading
Personal Weather Stations






























Interactive Weather Map New forecast layout! Learn more

10-Day Weather Forecast

Advertisements
Track Severe Weather on mobile